Time;durP1;ratioP1;P1;durP2;ratioP2;P2;SDS_P1;SDS_P2;PMS_P1;PMS_P2;Temp;Humidity;BMP_temperature;BMP_pressure;BME280_temperature;BME280_humidity;BME280_pressure;Samples;Min_cycle;Max_cycle;Signal;HPM_P1;HPM_P2
2021/09/28 00:00:55;;;;;;;23.15;13.18;;;10.90;99.90;;;;;;4837220;29;20044;-85
2021/09/28 00:03:24;;;;;;;28.55;12.23;;;10.90;99.90;;;;;;4835108;29;20049;-86
2021/09/28 00:05:50;;;;;;;27.92;13.35;;;10.90;99.90;;;;;;4867974;29;20032;-86
2021/09/28 00:08:16;;;;;;;30.63;12.02;;;10.80;99.90;;;;;;4852148;29;20056;-85
2021/09/28 00:10:44;;;;;;;23.27;10.75;;;10.80;99.90;;;;;;4837592;29;21760;-86
2021/09/28 00:13:10;;;;;;;24.50;10.18;;;10.80;99.90;;;;;;4851898;29;20049;-86
2021/09/28 00:15:36;;;;;;;22.13;10.38;;;10.80;99.90;;;;;;4850446;29;20044;-86
2021/09/28 00:18:02;;;;;;;33.92;14.15;;;10.80;99.90;;;;;;4851347;29;20047;-86
2021/09/28 00:20:29;;;;;;;24.67;13.73;;;10.70;99.90;;;;;;4866867;29;20044;-86
2021/09/28 00:22:56;;;;;;;24.48;11.35;;;10.70;99.90;;;;;;4847708;29;20048;-86
2021/09/28 00:25:25;;;;;;;32.67;13.73;;;10.70;99.90;;;;;;4840088;29;20416;-86
2021/09/28 00:27:54;;;;;;;24.02;10.43;;;10.70;99.90;;;;;;4851053;29;20060;-86
2021/09/28 00:30:22;;;;;;;25.38;11.05;;;10.70;99.90;;;;;;4850863;29;20041;-86
2021/09/28 00:32:53;;;;;;;24.05;11.07;;;10.70;99.90;;;;;;4865834;29;20036;-86
2021/09/28 00:35:19;;;;;;;28.17;10.60;;;10.70;99.90;;;;;;4854341;29;20127;-86
2021/09/28 00:37:54;;;;;;;23.02;10.88;;;10.70;99.90;;;;;;4854133;29;20147;-86
2021/09/28 00:40:38;;;;;;;32.53;14.40;;;10.70;99.90;;;;;;4861646;29;20056;-87
2021/09/28 00:43:06;;;;;;;20.10;10.48;;;10.70;99.90;;;;;;4849774;29;20238;-86
2021/09/28 00:45:35;;;;;;;28.83;11.75;;;10.70;99.90;;;;;;4864890;29;20040;-87
2021/09/28 00:48:01;;;;;;;18.65;9.52;;;10.60;99.90;;;;;;4851746;29;20415;-86
2021/09/28 00:50:30;;;;;;;19.55;9.18;;;10.60;99.90;;;;;;4854385;29;20067;-86
2021/09/28 00:52:57;;;;;;;14.13;8.38;;;10.60;99.90;;;;;;4846376;29;20045;-86
2021/09/28 00:55:29;;;;;;;22.65;11.02;;;10.50;99.90;;;;;;4856529;29;20052;-86
2021/09/28 00:58:20;;;;;;;18.40;10.43;;;10.50;99.90;;;;;;4865355;29;20104;-87
2021/09/28 01:00:50;;;;;;;30.88;11.70;;;10.50;99.90;;;;;;4852641;29;20052;-85
2021/09/28 01:03:27;;;;;;;22.60;13.27;;;10.40;99.90;;;;;;4854328;29;20040;-86
2021/09/28 01:05:53;;;;;;;27.30;12.75;;;10.40;99.90;;;;;;4853547;29;20040;-86
2021/09/28 01:08:19;;;;;;;27.48;11.82;;;10.40;99.90;;;;;;4862175;29;20045;-86
2021/09/28 01:10:44;;;;;;;17.58;10.50;;;10.40;99.90;;;;;;4849699;29;20049;-85
2021/09/28 01:13:10;;;;;;;23.88;12.23;;;10.30;99.90;;;;;;4849707;29;20064;-86
2021/09/28 01:15:36;;;;;;;33.50;16.20;;;10.30;99.90;;;;;;4862083;29;20044;-85
2021/09/28 01:18:02;;;;;;;39.35;16.17;;;10.30;99.90;;;;;;4862663;29;20327;-84
2021/09/28 01:20:28;;;;;;;31.00;15.57;;;10.30;99.90;;;;;;4865662;29;20051;-85
2021/09/28 01:22:54;;;;;;;24.40;12.60;;;10.30;99.90;;;;;;4849994;29;20044;-85
2021/09/28 01:25:20;;;;;;;25.50;11.95;;;10.30;99.90;;;;;;4852150;29;20043;-85
2021/09/28 01:27:48;;;;;;;24.00;13.43;;;10.20;99.90;;;;;;4834278;29;20052;-86
2021/09/28 01:30:17;;;;;;;24.70;12.55;;;10.20;99.90;;;;;;4838613;29;20048;-86
2021/09/28 01:32:42;;;;;;;24.27;13.80;;;10.20;99.90;;;;;;4837110;29;20047;-85
2021/09/28 01:35:09;;;;;;;23.45;14.75;;;10.20;99.90;;;;;;4865841;29;20045;-86
2021/09/28 01:37:34;;;;;;;21.92;13.10;;;10.20;99.90;;;;;;4849832;29;20483;-86
2021/09/28 01:40:00;;;;;;;23.63;12.57;;;10.20;99.90;;;;;;4848730;29;20056;-86
2021/09/28 01:42:26;;;;;;;22.17;14.55;;;10.10;99.90;;;;;;4836453;29;20184;-86
2021/09/28 01:44:52;;;;;;;24.33;14.35;;;10.10;99.90;;;;;;4848896;29;20214;-86
2021/09/28 01:47:18;;;;;;;27.70;14.90;;;10.10;99.90;;;;;;4862092;29;20069;-86
2021/09/28 01:49:43;;;;;;;23.02;13.77;;;10.10;99.90;;;;;;4834312;29;20070;-86
2021/09/28 01:52:09;;;;;;;28.00;14.68;;;10.00;99.90;;;;;;4832832;29;20188;-86
2021/09/28 01:54:35;;;;;;;26.08;14.63;;;10.00;99.90;;;;;;4847856;29;20501;-86
2021/09/28 01:57:03;;;;;;;26.83;15.07;;;10.00;99.90;;;;;;4853037;29;20052;-86
2021/09/28 01:59:29;;;;;;;25.55;16.38;;;10.00;99.90;;;;;;4836357;29;20088;-86
2021/09/28 02:01:56;;;;;;;24.25;15.43;;;10.00;99.90;;;;;;4853020;29;20143;-85
2021/09/28 02:04:21;;;;;;;29.33;16.33;;;9.90;99.90;;;;;;4864173;29;20045;-85
2021/09/28 02:06:48;;;;;;;33.60;17.75;;;9.90;99.90;;;;;;4851998;29;20408;-85
2021/09/28 02:09:15;;;;;;;34.33;18.50;;;9.90;99.90;;;;;;4852191;29;20057;-85
2021/09/28 02:11:40;;;;;;;27.40;17.73;;;9.90;99.90;;;;;;4869487;29;20139;-85
2021/09/28 02:14:08;;;;;;;28.00;17.05;;;9.90;99.90;;;;;;4843682;29;20040;-84
2021/09/28 02:16:34;;;;;;;30.05;16.92;;;9.90;99.90;;;;;;4839918;29;20060;-85
2021/09/28 02:19:00;;;;;;;30.90;17.67;;;9.90;99.90;;;;;;4836937;29;20072;-85
2021/09/28 02:21:26;;;;;;;31.10;18.80;;;9.90;99.90;;;;;;4836282;29;20124;-85
2021/09/28 02:23:52;;;;;;;35.80;19.02;;;9.90;99.90;;;;;;4853979;29;20040;-84
2021/09/28 02:26:17;;;;;;;35.63;19.50;;;9.80;99.90;;;;;;4837463;29;20071;-85
2021/09/28 02:28:43;;;;;;;36.38;19.17;;;9.80;99.90;;;;;;4850424;29;20052;-85
2021/09/28 02:31:09;;;;;;;49.63;23.73;;;9.80;99.90;;;;;;4839842;29;20041;-86
2021/09/28 02:33:38;;;;;;;43.15;22.95;;;9.80;99.90;;;;;;4856856;29;20445;-84
2021/09/28 02:36:04;;;;;;;47.42;24.33;;;9.80;99.90;;;;;;4826038;29;20120;-84
2021/09/28 02:38:29;;;;;;;43.55;22.80;;;9.80;99.90;;;;;;4835648;29;20205;-85
2021/09/28 02:40:55;;;;;;;60.50;28.30;;;9.90;99.90;;;;;;4852329;29;20051;-85
2021/09/28 02:43:21;;;;;;;50.33;24.10;;;9.90;99.90;;;;;;4866411;29;20615;-86
2021/09/28 02:45:50;;;;;;;48.05;24.50;;;9.90;99.90;;;;;;4837590;29;20068;-85
2021/09/28 02:48:16;;;;;;;49.45;24.77;;;9.90;99.90;;;;;;4854699;29;20040;-85
2021/09/28 02:50:42;;;;;;;39.47;21.38;;;9.90;99.90;;;;;;4852735;29;20416;-85
2021/09/28 02:53:09;;;;;;;49.25;24.33;;;9.80;99.90;;;;;;4847108;29;20093;-86
2021/09/28 02:55:35;;;;;;;45.78;21.20;;;9.80;99.90;;;;;;4835887;29;20104;-85
2021/09/28 02:58:00;;;;;;;37.08;20.55;;;9.80;99.90;;;;;;4834739;29;20261;-85
2021/09/28 03:00:26;;;;;;;40.75;21.98;;;9.80;99.90;;;;;;4839241;29;20048;-85
2021/09/28 03:02:52;;;;;;;55.42;26.60;;;9.80;99.90;;;;;;4846579;29;20049;-86
2021/09/28 03:05:18;;;;;;;46.92;25.80;;;9.80;99.90;;;;;;4844744;29;20131;-85
2021/09/28 03:07:44;;;;;;;42.25;23.88;;;9.80;99.90;;;;;;4843175;29;20107;-85
2021/09/28 03:10:10;;;;;;;40.55;22.98;;;9.80;99.90;;;;;;4869625;29;20476;-85
2021/09/28 03:12:36;;;;;;;49.15;23.48;;;9.80;99.90;;;;;;4837546;29;20155;-85
2021/09/28 03:15:03;;;;;;;44.40;23.10;;;9.80;99.90;;;;;;4854857;29;20515;-86
2021/09/28 03:17:28;;;;;;;38.40;23.13;;;9.80;99.90;;;;;;4864243;29;20047;-85
2021/09/28 03:19:54;;;;;;;42.88;22.95;;;9.80;99.90;;;;;;4847266;29;20479;-86
2021/09/28 03:22:20;;;;;;;48.05;23.65;;;9.70;99.90;;;;;;4820246;29;20412;-85
2021/09/28 03:24:46;;;;;;;52.97;24.05;;;9.70;99.90;;;;;;4868979;29;20567;-86
2021/09/28 03:27:11;;;;;;;52.20;24.70;;;9.70;99.90;;;;;;4854268;29;20508;-86
2021/09/28 03:29:37;;;;;;;46.72;24.20;;;9.70;99.90;;;;;;4837652;29;20135;-86
2021/09/28 03:32:03;;;;;;;39.30;22.40;;;9.70;99.90;;;;;;4835324;29;20032;-86
2021/09/28 03:34:29;;;;;;;42.50;22.52;;;9.70;99.90;;;;;;4839102;29;20092;-86
2021/09/28 03:36:55;;;;;;;45.05;23.42;;;9.70;99.90;;;;;;4848045;29;20452;-86
2021/09/28 03:39:23;;;;;;;51.78;27.50;;;9.70;99.90;;;;;;4862024;29;20051;-85
2021/09/28 03:41:49;;;;;;;55.35;26.58;;;9.70;99.90;;;;;;4837181;29;20051;-86
2021/09/28 03:44:15;;;;;;;57.55;27.23;;;9.70;99.90;;;;;;4850958;29;20048;-86
2021/09/28 03:46:41;;;;;;;53.20;25.08;;;9.70;99.90;;;;;;4852869;29;20091;-86
2021/09/28 03:49:07;;;;;;;41.67;24.25;;;9.70;99.90;;;;;;4835940;29;20052;-86
2021/09/28 03:51:33;;;;;;;44.45;25.10;;;9.70;99.90;;;;;;4835770;29;20132;-86
2021/09/28 03:53:58;;;;;;;45.80;23.55;;;9.70;99.90;;;;;;4846173;29;20032;-86
2021/09/28 03:56:24;;;;;;;47.95;23.92;;;9.60;99.90;;;;;;4836164;29;20108;-86
2021/09/28 03:58:50;;;;;;;46.50;22.35;;;9.70;99.90;;;;;;4862016;29;20044;-86
2021/09/28 04:01:16;;;;;;;48.33;23.15;;;9.60;99.90;;;;;;4838838;29;20056;-85
2021/09/28 04:03:42;;;;;;;41.67;22.55;;;9.60;99.90;;;;;;4852715;29;20037;-85
2021/09/28 04:06:09;;;;;;;48.22;25.33;;;9.60;99.90;;;;;;4853989;29;20056;-86
2021/09/28 04:08:35;;;;;;;61.08;26.70;;;9.60;99.90;;;;;;4837171;29;20047;-85
2021/09/28 04:11:00;;;;;;;75.32;30.77;;;9.60;99.90;;;;;;4834266;29;20232;-86
2021/09/28 04:13:26;;;;;;;77.97;31.23;;;9.60;99.90;;;;;;4863544;29;20049;-85
2021/09/28 04:15:52;;;;;;;58.83;27.20;;;9.60;99.90;;;;;;4864422;29;20433;-86
2021/09/28 04:18:19;;;;;;;51.60;24.73;;;9.60;99.90;;;;;;4836005;29;20128;-86
2021/09/28 04:20:45;;;;;;;53.65;25.23;;;9.60;99.90;;;;;;4849674;29;20059;-86
2021/09/28 04:23:13;;;;;;;47.55;25.42;;;9.60;99.90;;;;;;4867830;29;20052;-86
2021/09/28 04:25:40;;;;;;;52.67;24.73;;;9.60;99.90;;;;;;4849814;29;20079;-86
2021/09/28 04:28:07;;;;;;;50.72;23.30;;;9.60;99.90;;;;;;4852351;29;20055;-87
2021/09/28 04:30:33;;;;;;;42.78;23.33;;;9.60;99.90;;;;;;4845177;29;20082;-86
2021/09/28 04:32:59;;;;;;;61.95;28.20;;;9.60;99.90;;;;;;4849786;29;20041;-85
2021/09/28 04:35:25;;;;;;;64.90;30.13;;;9.50;99.90;;;;;;4836511;29;20100;-85
2021/09/28 04:37:51;;;;;;;52.97;27.40;;;9.60;99.90;;;;;;4850081;29;20048;-85
2021/09/28 04:40:16;;;;;;;55.90;27.00;;;9.50;99.90;;;;;;4837971;29;20071;-86
2021/09/28 04:42:42;;;;;;;53.10;25.90;;;9.60;99.90;;;;;;4835010;29;20487;-86
2021/09/28 04:45:09;;;;;;;50.50;25.70;;;9.60;99.90;;;;;;4873807;29;20048;-84
2021/09/28 04:47:35;;;;;;;58.65;24.48;;;9.60;99.90;;;;;;4836230;29;20040;-85
2021/09/28 04:50:02;;;;;;;43.38;22.92;;;9.50;99.90;;;;;;4866522;29;20052;-87
2021/09/28 04:52:27;;;;;;;47.38;22.55;;;9.60;99.90;;;;;;4885698;29;20332;-86
2021/09/28 04:54:53;;;;;;;66.22;28.50;;;9.50;99.90;;;;;;4853428;29;20100;-87
2021/09/28 04:57:21;;;;;;;61.03;27.42;;;9.60;99.90;;;;;;4840089;29;20076;-87
2021/09/28 04:59:48;;;;;;;54.13;26.05;;;9.50;99.90;;;;;;4843220;29;20100;-87
2021/09/28 05:02:14;;;;;;;62.35;25.63;;;9.50;99.90;;;;;;4829184;29;20515;-86
2021/09/28 05:04:41;;;;;;;63.05;29.25;;;9.50;99.90;;;;;;4852267;29;20296;-87
2021/09/28 05:07:07;;;;;;;58.63;26.70;;;9.50;99.90;;;;;;4847442;29;20045;-88
2021/09/28 05:09:33;;;;;;;58.17;26.40;;;9.50;99.90;;;;;;4828850;29;20067;-87
2021/09/28 05:11:59;;;;;;;56.40;26.20;;;9.40;99.90;;;;;;4833236;29;20124;-87
2021/09/28 05:14:26;;;;;;;50.97;25.60;;;9.50;99.90;;;;;;4862271;29;20044;-87
2021/09/28 05:16:52;;;;;;;60.42;26.30;;;9.40;99.90;;;;;;4831576;29;20048;-87
2021/09/28 05:19:18;;;;;;;47.97;23.83;;;9.40;99.90;;;;;;4835405;29;20135;-87
2021/09/28 05:21:43;;;;;;;63.75;26.17;;;9.40;99.90;;;;;;4846418;29;20040;-87
2021/09/28 05:24:09;;;;;;;61.83;25.90;;;9.40;99.90;;;;;;4835453;29;20060;-88
2021/09/28 05:26:35;;;;;;;59.90;26.92;;;9.40;99.90;;;;;;4844835;29;20543;-87
2021/09/28 05:29:01;;;;;;;57.03;28.02;;;9.30;99.90;;;;;;4828719;29;20140;-87
2021/09/28 05:31:28;;;;;;;52.08;26.40;;;9.40;99.90;;;;;;4864461;29;20049;-87
2021/09/28 05:33:54;;;;;;;54.13;27.02;;;9.30;99.90;;;;;;4839815;29;20040;-87
2021/09/28 05:36:20;;;;;;;59.03;26.92;;;9.30;99.90;;;;;;4866739;29;20572;-87
2021/09/28 05:38:46;;;;;;;70.15;30.27;;;9.40;99.90;;;;;;4851501;29;20040;-87
2021/09/28 05:41:12;;;;;;;63.55;27.95;;;9.40;99.90;;;;;;4834819;29;20104;-88
2021/09/28 05:43:39;;;;;;;58.00;27.52;;;9.40;99.90;;;;;;4865144;29;20470;-87
2021/09/28 05:46:05;;;;;;;60.10;27.63;;;9.40;99.90;;;;;;4837501;29;20052;-88
2021/09/28 05:48:31;;;;;;;54.30;26.77;;;9.40;99.90;;;;;;4864923;29;20456;-87
2021/09/28 05:50:57;;;;;;;60.95;28.45;;;9.40;99.90;;;;;;4835183;29;20041;-87
2021/09/28 05:53:25;;;;;;;53.78;26.48;;;9.40;99.90;;;;;;4854105;29;20041;-87
2021/09/28 05:55:51;;;;;;;60.05;28.60;;;9.40;99.90;;;;;;4838940;29;20032;-87
2021/09/28 05:58:16;;;;;;;56.92;28.08;;;9.40;99.90;;;;;;4845422;29;20538;-86
2021/09/28 06:00:42;;;;;;;56.13;27.67;;;9.40;99.90;;;;;;4843622;29;20040;-87
2021/09/28 06:03:08;;;;;;;58.58;28.52;;;9.40;99.90;;;;;;4853295;29;20224;-87
2021/09/28 06:05:35;;;;;;;60.85;29.52;;;9.40;99.90;;;;;;4853184;29;20080;-87
2021/09/28 06:08:02;;;;;;;60.17;28.30;;;9.40;99.90;;;;;;4855512;29;20139;-87
2021/09/28 06:10:27;;;;;;;59.97;28.48;;;9.50;99.90;;;;;;4855424;29;20412;-87
2021/09/28 06:12:53;;;;;;;63.10;29.23;;;9.50;99.90;;;;;;4839678;29;20037;-88
2021/09/28 06:15:19;;;;;;;59.22;29.27;;;9.50;99.90;;;;;;4847933;29;20492;-87
2021/09/28 06:17:45;;;;;;;59.53;29.23;;;9.50;99.90;;;;;;4853886;29;20040;-86
2021/09/28 06:20:11;;;;;;;52.42;27.48;;;9.50;99.90;;;;;;4847338;29;20147;-86
2021/09/28 06:22:38;;;;;;;59.58;29.10;;;9.50;99.90;;;;;;4870452;29;20041;-86
2021/09/28 06:25:05;;;;;;;63.25;27.50;;;9.60;99.90;;;;;;4870126;29;20040;-86
2021/09/28 06:27:31;;;;;;;53.38;27.50;;;9.60;99.90;;;;;;4861315;29;20051;-87
2021/09/28 06:29:57;;;;;;;69.07;27.92;;;9.60;99.90;;;;;;4852780;29;20044;-86
2021/09/28 06:32:23;;;;;;;58.30;28.17;;;9.60;99.90;;;;;;4838031;29;20447;-86
2021/09/28 06:34:49;;;;;;;57.47;27.50;;;9.70;99.90;;;;;;4854934;29;20367;-86
2021/09/28 06:37:15;;;;;;;57.00;28.13;;;9.70;99.90;;;;;;4851036;29;20127;-87
2021/09/28 06:39:41;;;;;;;60.53;28.80;;;9.70;99.90;;;;;;4835596;29;20139;-86
2021/09/28 06:42:08;;;;;;;55.10;27.42;;;9.80;99.90;;;;;;4854238;29;20036;-85
2021/09/28 06:44:33;;;;;;;53.88;27.77;;;9.80;99.90;;;;;;4864380;29;20048;-86
2021/09/28 06:46:59;;;;;;;62.20;28.48;;;9.80;99.90;;;;;;4842725;29;20037;-86
2021/09/28 06:49:25;;;;;;;61.55;29.88;;;9.90;99.90;;;;;;4850093;29;20542;-86
2021/09/28 06:51:51;;;;;;;63.47;29.15;;;9.90;99.90;;;;;;4850777;29;20051;-87
2021/09/28 06:54:16;;;;;;;61.35;28.92;;;9.90;99.90;;;;;;4851739;29;20098;-86
2021/09/28 06:56:42;;;;;;;66.57;29.80;;;10.00;99.90;;;;;;4864991;29;20044;-86
2021/09/28 06:59:10;;;;;;;67.88;28.83;;;10.00;99.90;;;;;;4850367;29;20059;-85
2021/09/28 07:01:37;;;;;;;63.17;29.13;;;10.10;99.90;;;;;;4850114;29;20045;-86
2021/09/28 07:04:11;;;;;;;60.75;29.42;;;10.20;99.90;;;;;;4870997;29;20116;-87
2021/09/28 07:06:55;;;;;;;55.55;26.75;;;10.20;99.90;;;;;;4870903;29;20048;-86
2021/09/28 07:09:40;;;;;;;54.92;29.15;;;10.30;99.90;;;;;;4856119;29;20119;-86
2021/09/28 07:12:12;;;;;;;51.10;24.77;;;10.40;99.90;;;;;;4855322;29;20044;-85
2021/09/28 07:14:40;;;;;;;57.20;26.55;;;10.40;99.90;;;;;;4886521;29;20252;-86
2021/09/28 07:17:24;;;;;;;54.05;27.50;;;10.50;99.90;;;;;;4842435;29;20068;-87
2021/09/28 07:19:50;;;;;;;51.35;26.33;;;10.50;99.90;;;;;;4872008;23;20053;-86
2021/09/28 07:22:19;;;;;;;48.80;23.45;;;10.60;99.90;;;;;;4868603;29;20434;-86
2021/09/28 07:24:47;;;;;;;55.05;25.33;;;10.60;99.90;;;;;;4865058;29;20051;-85
2021/09/28 07:27:13;;;;;;;45.45;23.63;;;10.70;99.90;;;;;;4870786;29;20498;-86
2021/09/28 07:29:39;;;;;;;50.83;24.00;;;10.80;99.90;;;;;;4866212;29;20120;-87
2021/09/28 07:32:05;;;;;;;50.67;25.33;;;10.90;99.90;;;;;;4857076;29;20101;-86
2021/09/28 07:34:32;;;;;;;37.38;19.80;;;10.90;99.90;;;;;;4869263;29;20081;-86
2021/09/28 07:36:57;;;;;;;48.90;20.02;;;10.90;99.90;;;;;;4849151;29;20048;-87
2021/09/28 07:39:23;;;;;;;43.47;20.73;;;11.00;99.90;;;;;;4867625;29;21429;-88
2021/09/28 07:41:49;;;;;;;45.67;19.92;;;11.10;99.90;;;;;;4837808;29;20131;-88
2021/09/28 07:44:15;;;;;;;41.28;19.38;;;11.10;99.90;;;;;;4834990;29;20178;-89
2021/09/28 07:46:41;;;;;;;35.67;17.65;;;11.10;99.90;;;;;;4870989;29;20039;-87
2021/09/28 07:49:07;;;;;;;43.60;19.17;;;11.20;99.90;;;;;;4877886;29;20155;-88
2021/09/28 07:51:32;;;;;;;38.58;19.30;;;11.20;99.90;;;;;;4850676;29;21618;-89
2021/09/28 07:53:58;;;;;;;35.60;19.48;;;11.30;99.90;;;;;;4862158;29;20092;-88
2021/09/28 07:56:26;;;;;;;35.53;16.27;;;11.40;99.90;;;;;;4857538;29;20157;-88
2021/09/28 07:58:52;;;;;;;37.42;17.00;;;11.50;99.90;;;;;;4866956;29;20551;-89
2021/09/28 08:01:18;;;;;;;34.08;17.83;;;11.50;99.90;;;;;;4849536;29;20120;-88
2021/09/28 08:03:44;;;;;;;32.05;16.02;;;11.50;99.90;;;;;;4885940;29;20625;-88
2021/09/28 08:06:10;;;;;;;35.55;15.32;;;11.60;99.90;;;;;;4881475;29;20423;-85
2021/09/28 08:08:35;;;;;;;36.75;16.92;;;11.60;99.90;;;;;;4846555;29;20678;-86
2021/09/28 08:11:01;;;;;;;29.40;16.23;;;11.60;99.90;;;;;;4866995;29;20063;-86
2021/09/28 08:13:27;;;;;;;35.65;16.70;;;11.70;99.90;;;;;;4865592;29;20484;-87
2021/09/28 08:15:54;;;;;;;31.77;14.43;;;11.80;99.90;;;;;;4844289;29;20041;-88
2021/09/28 08:18:20;;;;;;;34.65;14.80;;;11.90;99.90;;;;;;4866893;29;20447;-85
2021/09/28 08:20:46;;;;;;;31.90;14.90;;;11.90;99.90;;;;;;4865833;29;20048;-86
2021/09/28 08:23:13;;;;;;;31.02;14.43;;;12.00;99.90;;;;;;4863878;29;20510;-88
2021/09/28 08:25:59;;;;;;;29.70;13.57;;;12.00;99.90;;;;;;4874273;29;20048;-88
2021/09/28 08:31:12;;;;;;;30.55;12.57;;;12.20;99.90;;;;;;4882043;29;20052;-89
2021/09/28 08:33:38;;;;;;;39.80;14.93;;;12.20;99.90;;;;;;4879809;29;20037;-88
2021/09/28 08:36:05;;;;;;;30.63;12.32;;;12.20;99.90;;;;;;4865918;29;20368;-87
2021/09/28 08:38:31;;;;;;;21.77;10.85;;;12.30;99.90;;;;;;4859509;29;20488;-87
2021/09/28 08:40:58;;;;;;;24.77;11.18;;;12.40;99.90;;;;;;4862275;29;20530;-87
2021/09/28 08:43:25;;;;;;;28.40;11.55;;;12.50;99.90;;;;;;4859554;29;20074;-87
2021/09/28 08:45:51;;;;;;;27.95;10.52;;;12.60;99.90;;;;;;4850460;29;20068;-86
2021/09/28 08:48:17;;;;;;;24.70;11.13;;;12.60;99.90;;;;;;4864690;29;20559;-88
2021/09/28 08:50:49;;;;;;;24.85;9.82;;;12.70;99.90;;;;;;4849573;29;20111;-85
2021/09/28 08:53:16;;;;;;;23.95;9.55;;;12.80;99.90;;;;;;4875135;29;20075;-84
2021/09/28 08:55:42;;;;;;;24.95;10.60;;;12.80;99.90;;;;;;4868427;29;20036;-86
2021/09/28 08:58:17;;;;;;;25.63;11.40;;;12.90;99.90;;;;;;4863720;29;20410;-88
2021/09/28 09:00:44;;;;;;;22.27;9.88;;;13.00;99.90;;;;;;4869651;29;20044;-86
2021/09/28 09:03:29;;;;;;;27.58;10.48;;;13.00;99.90;;;;;;4865853;29;20112;-84
2021/09/28 09:06:00;;;;;;;21.73;8.35;;;13.10;99.90;;;;;;4850396;29;20041;-85
2021/09/28 09:08:33;;;;;;;22.52;10.18;;;13.10;99.90;;;;;;4860252;29;20044;-87
2021/09/28 09:11:10;;;;;;;24.20;9.82;;;13.20;99.90;;;;;;4866726;29;20415;-86
2021/09/28 09:13:39;;;;;;;18.35;9.25;;;13.30;99.90;;;;;;4871838;29;20044;-86
2021/09/28 09:16:07;;;;;;;24.45;8.90;;;13.30;99.90;;;;;;4885684;29;20041;-86
2021/09/28 09:18:37;;;;;;;28.48;9.20;;;13.40;99.90;;;;;;4882673;29;20084;-85
2021/09/28 09:21:07;;;;;;;27.80;9.57;;;13.40;99.90;;;;;;4869896;29;20041;-86
2021/09/28 09:23:36;;;;;;;20.48;8.48;;;13.50;99.90;;;;;;4856883;29;20041;-85
2021/09/28 09:26:19;;;;;;;23.13;9.00;;;13.60;99.90;;;;;;4871915;29;20501;-85
2021/09/28 09:29:15;;;;;;;25.25;9.35;;;13.70;99.90;;;;;;4887968;29;20048;-86
2021/09/28 09:31:54;;;;;;;26.92;8.63;;;13.80;99.90;;;;;;4884297;29;20040;-85
2021/09/28 09:34:25;;;;;;;24.98;7.93;;;13.90;99.90;;;;;;4869116;29;20127;-86
2021/09/28 09:37:05;;;;;;;24.23;7.57;;;14.00;99.90;;;;;;4884198;29;20199;-85
2021/09/28 09:40:12;;;;;;;23.10;6.97;;;14.10;99.90;;;;;;4866677;29;20188;-85
2021/09/28 09:42:54;;;;;;;22.05;6.70;;;14.20;99.90;;;;;;4829378;29;20045;-87
2021/09/28 09:45:24;;;;;;;21.30;6.70;;;14.30;99.90;;;;;;4813288;29;20419;-88
2021/09/28 09:47:53;;;;;;;22.73;6.53;;;14.20;99.90;;;;;;4853299;29;20049;-87
2021/09/28 09:50:22;;;;;;;18.60;5.93;;;14.30;99.90;;;;;;4865723;29;20041;-86
2021/09/28 09:52:57;;;;;;;17.63;6.35;;;14.40;99.90;;;;;;4878926;29;20052;-85
2021/09/28 09:55:27;;;;;;;22.83;6.00;;;14.50;99.90;;;;;;4876747;29;20667;-86
2021/09/28 09:57:54;;;;;;;15.57;5.05;;;14.60;99.90;;;;;;4865620;29;20033;-87
2021/09/28 10:00:21;;;;;;;16.92;5.57;;;14.60;99.90;;;;;;4850841;29;20134;-87
2021/09/28 10:02:47;;;;;;;24.60;5.75;;;14.70;99.90;;;;;;4884412;29;20040;-85
2021/09/28 10:05:13;;;;;;;20.48;5.10;;;14.70;99.90;;;;;;4861752;29;20037;-85
2021/09/28 10:07:40;;;;;;;20.92;5.20;;;14.80;99.90;;;;;;4874803;29;20071;-87
2021/09/28 10:10:10;;;;;;;25.08;5.43;;;14.90;99.90;;;;;;4871089;29;20086;-87
2021/09/28 10:12:37;;;;;;;18.42;5.60;;;15.00;99.90;;;;;;4865982;29;20732;-87
2021/09/28 10:15:11;;;;;;;18.38;5.22;;;15.10;99.90;;;;;;4868625;29;20128;-86
2021/09/28 10:17:39;;;;;;;20.17;6.25;;;15.20;99.90;;;;;;4866906;29;20053;-87
2021/09/28 10:20:08;;;;;;;24.65;5.95;;;15.30;99.90;;;;;;4874437;29;20045;-86
2021/09/28 10:22:52;;;;;;;22.75;5.50;;;15.30;99.90;;;;;;4870025;29;20205;-88
2021/09/28 10:25:31;;;;;;;16.50;4.90;;;15.40;99.90;;;;;;4865242;29;20107;-87
2021/09/28 10:28:18;;;;;;;12.05;4.00;;;15.50;99.90;;;;;;4868407;29;20468;-88
2021/09/28 10:30:46;;;;;;;19.52;4.03;;;15.60;99.90;;;;;;4871148;29;20073;-86
2021/09/28 10:33:11;;;;;;;16.58;4.53;;;15.70;99.90;;;;;;4885976;29;20064;-88
2021/09/28 10:35:55;;;;;;;21.70;4.30;;;15.70;99.90;;;;;;4881918;29;20691;-87
2021/09/28 10:38:47;;;;;;;18.95;3.90;;;15.80;99.90;;;;;;4863376;29;20160;-87
2021/09/28 10:41:28;;;;;;;17.42;3.38;;;15.80;99.90;;;;;;4870454;29;20091;-86
2021/09/28 10:43:55;;;;;;;16.10;3.75;;;15.90;99.90;;;;;;4884775;29;20045;-86
2021/09/28 10:46:47;;;;;;;16.42;3.58;;;16.00;99.90;;;;;;4867715;29;20045;-86
2021/09/28 10:49:36;;;;;;;18.13;3.63;;;16.10;99.90;;;;;;4855349;29;20052;-86
2021/09/28 10:52:20;;;;;;;12.70;3.03;;;16.10;99.90;;;;;;4875533;29;20132;-87
2021/09/28 10:55:12;;;;;;;16.63;3.47;;;16.20;99.90;;;;;;4879657;29;20040;-85
2021/09/28 10:57:58;;;;;;;13.73;3.25;;;16.30;99.90;;;;;;4878578;29;20048;-86
2021/09/28 11:00:26;;;;;;;19.63;3.47;;;16.40;99.90;;;;;;4876678;29;20044;-87
2021/09/28 11:02:56;;;;;;;18.70;3.45;;;16.40;99.90;;;;;;4883088;29;20100;-85
2021/09/28 11:05:33;;;;;;;14.07;2.72;;;16.40;99.90;;;;;;4862607;29;20116;-87
2021/09/28 11:08:00;;;;;;;18.65;3.20;;;16.50;99.90;;;;;;4866090;29;20044;-85
2021/09/28 11:10:30;;;;;;;18.20;2.97;;;16.60;99.90;;;;;;4863481;29;20058;-86
2021/09/28 11:12:56;;;;;;;16.13;2.88;;;16.70;99.90;;;;;;4863476;29;20040;-86
2021/09/28 11:15:26;;;;;;;19.35;3.45;;;16.70;99.90;;;;;;4866235;29;20041;-86
2021/09/28 11:17:52;;;;;;;14.07;2.78;;;16.80;99.90;;;;;;4863787;29;20092;-86
2021/09/28 11:20:25;;;;;;;17.92;2.70;;;16.90;99.90;;;;;;4880958;29;20033;-87
2021/09/28 11:23:08;;;;;;;17.20;3.25;;;16.90;99.90;;;;;;4881782;29;20032;-86
2021/09/28 11:25:58;;;;;;;15.63;2.88;;;17.00;99.90;;;;;;4853503;29;20400;-87
2021/09/28 11:28:24;;;;;;;14.55;3.25;;;17.00;99.90;;;;;;4867671;29;20045;-88
2021/09/28 11:30:54;;;;;;;18.10;2.67;;;17.10;99.90;;;;;;4866743;29;20036;-87
2021/09/28 11:33:20;;;;;;;13.55;2.28;;;17.10;99.90;;;;;;4868645;29;20037;-85
2021/09/28 11:36:01;;;;;;;16.90;2.58;;;17.20;99.90;;;;;;4881705;29;20040;-88
2021/09/28 11:38:39;;;;;;;11.77;2.58;;;17.20;99.90;;;;;;4876291;29;20085;-87
2021/09/28 11:41:10;;;;;;;12.45;2.72;;;17.30;99.90;;;;;;4894862;29;20040;-87
2021/09/28 11:43:37;;;;;;;14.20;2.33;;;17.40;99.90;;;;;;4869324;29;20044;-87
2021/09/28 11:46:06;;;;;;;13.07;2.00;;;17.40;99.90;;;;;;4877548;29;20049;-84
2021/09/28 11:49:06;;;;;;;15.18;2.50;;;17.40;99.90;;;;;;4866622;29;20112;-86
2021/09/28 11:51:39;;;;;;;14.57;2.78;;;17.40;99.90;;;;;;4869184;29;20519;-85
2021/09/28 11:54:15;;;;;;;15.63;2.60;;;17.40;99.90;;;;;;4878327;29;20091;-86
2021/09/28 11:56:44;;;;;;;19.23;2.70;;;17.40;99.90;;;;;;4879285;29;20313;-88
2021/09/28 11:59:18;;;;;;;10.73;2.20;;;17.30;99.90;;;;;;4873021;29;20052;-85
2021/09/28 12:01:45;;;;;;;11.93;2.20;;;17.30;99.90;;;;;;4877757;29;20048;-86
2021/09/28 12:09:34;;;;;;;53.88;4.28;;;17.20;99.90;;;;;;4878928;29;20041;-86
2021/09/28 12:12:02;;;;;;;15.57;2.47;;;17.30;99.90;;;;;;4875167;29;20044;-86
2021/09/28 12:14:34;;;;;;;14.77;3.03;;;17.40;99.90;;;;;;4878442;29;20074;-85
2021/09/28 12:17:48;;;;;;;17.55;2.97;;;17.50;99.90;;;;;;4864957;29;20565;-87
2021/09/28 12:20:22;;;;;;;18.30;2.28;;;17.50;99.90;;;;;;4864932;29;20052;-86
2021/09/28 12:22:57;;;;;;;17.98;2.72;;;17.50;99.90;;;;;;4867356;29;20055;-86
2021/09/28 12:25:29;;;;;;;16.80;2.58;;;17.40;99.80;;;;;;4866665;29;20045;-86
2021/09/28 12:28:09;;;;;;;26.00;3.00;;;17.30;99.90;;;;;;4877029;29;20041;-86
2021/09/28 12:30:58;;;;;;;14.55;2.10;;;17.20;99.90;;;;;;4863971;29;20515;-88
2021/09/28 12:33:27;;;;;;;16.13;2.63;;;17.20;99.90;;;;;;4879844;29;20058;-85
2021/09/28 12:35:55;;;;;;;8.30;1.90;;;17.20;99.90;;;;;;4874067;29;20129;-87
2021/09/28 12:38:21;;;;;;;12.95;2.17;;;17.30;99.90;;;;;;4859215;29;20064;-86
2021/09/28 12:40:47;;;;;;;7.95;1.80;;;17.40;99.80;;;;;;4841057;29;20078;-86
2021/09/28 12:43:15;;;;;;;14.23;2.45;;;17.60;99.30;;;;;;4864429;29;20041;-87
2021/09/28 12:45:42;;;;;;;10.73;2.00;;;17.50;98.50;;;;;;4888528;29;20072;-87
2021/09/28 12:48:08;;;;;;;11.77;2.40;;;17.50;98.00;;;;;;4869309;29;20528;-87
2021/09/28 12:50:36;;;;;;;13.80;2.13;;;17.30;98.10;;;;;;4864458;29;20045;-86